sensor_id;sensor_type;location;lat;lon;timestamp;pressure;altitude;pressure_sealevel;temperature;humidity
3254;BME280;1639;42.804;23.342;2023-03-14T00:00:21;74552.69;;;-148.52;65.62
3254;BME280;1639;42.804;23.342;2023-03-14T00:02:51;74560.97;;;-148.52;65.56
3254;BME280;1639;42.804;23.342;2023-03-14T00:05:17;74563.03;;;-148.52;66.19
3254;BME280;1639;42.804;23.342;2023-03-14T00:07:42;74554.78;;;-148.52;65.96
3254;BME280;1639;42.804;23.342;2023-03-14T00:10:13;74548.56;;;-148.52;66.69
3254;BME280;1639;42.804;23.342;2023-03-14T00:12:39;74542.34;;;-148.52;66.08
3254;BME280;1639;42.804;23.342;2023-03-14T00:15:06;74536.16;;;-148.52;65.35
3254;BME280;1639;42.804;23.342;2023-03-14T00:17:32;74575.47;;;-148.52;65.62
3254;BME280;1639;42.804;23.342;2023-03-14T00:19:58;74556.84;;;-148.52;65.41
3254;BME280;1639;42.804;23.342;2023-03-14T00:22:30;74558.91;;;-148.52;65.66
3254;BME280;1639;42.804;23.342;2023-03-14T00:24:56;74565.13;;;-148.52;65.38
3254;BME280;1639;42.804;23.342;2023-03-14T00:27:21;74558.91;;;-148.52;65.41
3254;BME280;1639;42.804;23.342;2023-03-14T00:29:46;74552.69;;;-148.52;65.62
3254;BME280;1639;42.804;23.342;2023-03-14T00:32:12;74565.13;;;-148.52;65.13
3254;BME280;1639;42.804;23.342;2023-03-14T00:34:38;74554.78;;;-148.52;65.75
3254;BME280;1639;42.804;23.342;2023-03-14T00:37:03;74558.91;;;-148.52;65.46
3254;BME280;1639;42.804;23.342;2023-03-14T00:39:29;74560.97;;;-148.52;65.13
3254;BME280;1639;42.804;23.342;2023-03-14T00:41:54;74563.03;;;-148.52;66.06
3254;BME280;1639;42.804;23.342;2023-03-14T00:44:19;74556.84;;;-148.52;66.54
3254;BME280;1639;42.804;23.342;2023-03-14T00:46:45;74542.34;;;-148.52;65.89
3254;BME280;1639;42.804;23.342;2023-03-14T00:49:10;74546.50;;;-148.52;65.64
3254;BME280;1639;42.804;23.342;2023-03-14T00:51:35;74540.28;;;-148.52;65.51
3254;BME280;1639;42.804;23.342;2023-03-14T00:54:01;74552.69;;;-148.52;65.98
3254;BME280;1639;42.804;23.342;2023-03-14T00:56:26;74548.56;;;-148.52;66.00
3254;BME280;1639;42.804;23.342;2023-03-14T00:58:55;74563.03;;;-148.52;65.54
3254;BME280;1639;42.804;23.342;2023-03-14T01:01:22;74565.13;;;-148.52;66.70
3254;BME280;1639;42.804;23.342;2023-03-14T01:03:51;74571.31;;;-148.52;67.52
3254;BME280;1639;42.804;23.342;2023-03-14T01:06:21;74569.25;;;-148.52;68.04
3254;BME280;1639;42.804;23.342;2023-03-14T01:08:48;74575.47;;;-148.52;67.36
3254;BME280;1639;42.804;23.342;2023-03-14T01:11:16;74575.47;;;-148.52;68.04
3254;BME280;1639;42.804;23.342;2023-03-14T01:13:42;74552.69;;;-148.52;67.01
3254;BME280;1639;42.804;23.342;2023-03-14T01:16:09;74563.03;;;-148.52;66.40
3254;BME280;1639;42.804;23.342;2023-03-14T01:18:36;74577.53;;;-148.52;65.89
3254;BME280;1639;42.804;23.342;2023-03-14T01:21:15;74585.81;;;-148.52;67.42
3254;BME280;1639;42.804;23.342;2023-03-14T01:23:41;74589.94;;;-148.52;68.00
3254;BME280;1639;42.804;23.342;2023-03-14T01:26:16;74583.75;;;-148.52;67.40
3254;BME280;1639;42.804;23.342;2023-03-14T01:28:44;74579.59;;;-148.52;67.63
3254;BME280;1639;42.804;23.342;2023-03-14T01:31:10;74571.31;;;-148.52;67.71
3254;BME280;1639;42.804;23.342;2023-03-14T01:33:35;74565.13;;;-148.52;66.46
3254;BME280;1639;42.804;23.342;2023-03-14T01:36:01;74569.25;;;-148.52;65.89
3254;BME280;1639;42.804;23.342;2023-03-14T01:38:28;74581.66;;;-148.52;66.79
3254;BME280;1639;42.804;23.342;2023-03-14T01:40:54;74585.81;;;-148.52;67.06
3254;BME280;1639;42.804;23.342;2023-03-14T01:43:20;74589.94;;;-148.52;67.06
3254;BME280;1639;42.804;23.342;2023-03-14T01:48:25;74579.59;;;-148.52;66.44
3254;BME280;1639;42.804;23.342;2023-03-14T01:50:51;74587.88;;;-148.52;67.18
3254;BME280;1639;42.804;23.342;2023-03-14T01:53:17;74577.53;;;-148.52;66.96
3254;BME280;1639;42.804;23.342;2023-03-14T01:55:49;74594.09;;;-148.52;67.41
3254;BME280;1639;42.804;23.342;2023-03-14T01:58:16;74575.47;;;-148.52;67.19
3254;BME280;1639;42.804;23.342;2023-03-14T02:00:42;74592.00;;;-148.52;68.32
3254;BME280;1639;42.804;23.342;2023-03-14T02:03:14;74594.09;;;-148.52;68.99
3254;BME280;1639;42.804;23.342;2023-03-14T02:05:42;74589.94;;;-148.52;68.10
3254;BME280;1639;42.804;23.342;2023-03-14T02:08:11;74594.09;;;-148.52;68.22
3254;BME280;1639;42.804;23.342;2023-03-14T02:10:41;74594.09;;;-148.52;68.63
3254;BME280;1639;42.804;23.342;2023-03-14T02:13:08;74587.88;;;-148.52;67.91
3254;BME280;1639;42.804;23.342;2023-03-14T02:15:34;74587.88;;;-148.52;67.66
3254;BME280;1639;42.804;23.342;2023-03-14T02:18:01;74594.09;;;-148.52;68.30
3254;BME280;1639;42.804;23.342;2023-03-14T02:20:36;74581.66;;;-148.52;68.58
3254;BME280;1639;42.804;23.342;2023-03-14T02:23:04;74585.81;;;-148.52;69.66
3254;BME280;1639;42.804;23.342;2023-03-14T02:25:49;74581.66;;;-148.52;69.50
3254;BME280;1639;42.804;23.342;2023-03-14T02:28:17;74577.53;;;-148.52;68.92
3254;BME280;1639;42.804;23.342;2023-03-14T02:30:43;74585.81;;;-148.52;69.00
3254;BME280;1639;42.804;23.342;2023-03-14T02:33:12;74594.09;;;-148.52;68.91
3254;BME280;1639;42.804;23.342;2023-03-14T02:35:45;74592.00;;;-148.52;69.24
3254;BME280;1639;42.804;23.342;2023-03-14T02:38:24;74594.09;;;-148.52;68.94
3254;BME280;1639;42.804;23.342;2023-03-14T02:40:54;74610.63;;;-148.52;68.53
3254;BME280;1639;42.804;23.342;2023-03-14T02:43:19;74620.97;;;-148.52;69.90
3254;BME280;1639;42.804;23.342;2023-03-14T02:45:47;74610.63;;;-148.52;70.21
3254;BME280;1639;42.804;23.342;2023-03-14T02:50:48;74614.78;;;-148.52;68.99
3254;BME280;1639;42.804;23.342;2023-03-14T02:53:18;74614.78;;;-148.52;69.30
3254;BME280;1639;42.804;23.342;2023-03-14T02:55:47;74612.69;;;-148.52;69.00
3254;BME280;1639;42.804;23.342;2023-03-14T02:58:13;74623.06;;;-148.52;68.95
3254;BME280;1639;42.804;23.342;2023-03-14T03:00:38;74627.19;;;-148.52;69.28
3254;BME280;1639;42.804;23.342;2023-03-14T03:03:04;74629.25;;;-148.52;70.09
3254;BME280;1639;42.804;23.342;2023-03-14T03:05:31;74627.19;;;-148.52;70.19
3254;BME280;1639;42.804;23.342;2023-03-14T03:07:57;74627.19;;;-148.52;69.96
3254;BME280;1639;42.804;23.342;2023-03-14T03:10:22;74629.25;;;-148.52;70.46
3254;BME280;1639;42.804;23.342;2023-03-14T03:12:48;74623.06;;;-148.52;69.32
3254;BME280;1639;42.804;23.342;2023-03-14T03:15:13;74600.28;;;-148.52;68.75
3254;BME280;1639;42.804;23.342;2023-03-14T03:17:38;74610.63;;;-148.52;69.10
3254;BME280;1639;42.804;23.342;2023-03-14T03:20:04;74612.69;;;-148.52;69.60
3254;BME280;1639;42.804;23.342;2023-03-14T03:22:30;74618.91;;;-148.52;68.96
3254;BME280;1639;42.804;23.342;2023-03-14T03:24:56;74602.34;;;-148.52;69.65
3254;BME280;1639;42.804;23.342;2023-03-14T03:27:21;74602.34;;;-148.52;70.07
3254;BME280;1639;42.804;23.342;2023-03-14T03:29:47;74608.56;;;-148.52;70.54
3254;BME280;1639;42.804;23.342;2023-03-14T03:32:12;74598.22;;;-148.52;70.25
3254;BME280;1639;42.804;23.342;2023-03-14T03:34:38;74610.63;;;-148.52;70.31
3254;BME280;1639;42.804;23.342;2023-03-14T03:37:03;74606.50;;;-148.52;70.49
3254;BME280;1639;42.804;23.342;2023-03-14T03:39:28;74602.34;;;-148.52;69.38
3254;BME280;1639;42.804;23.342;2023-03-14T03:41:54;74596.16;;;-148.52;69.56
3254;BME280;1639;42.804;23.342;2023-03-14T03:44:19;74587.88;;;-148.52;69.26
3254;BME280;1639;42.804;23.342;2023-03-14T03:46:45;74596.16;;;-148.52;68.42
3254;BME280;1639;42.804;23.342;2023-03-14T03:49:11;74600.28;;;-148.52;68.52
3254;BME280;1639;42.804;23.342;2023-03-14T03:51:36;74606.50;;;-148.52;69.33
3254;BME280;1639;42.804;23.342;2023-03-14T03:54:01;74610.63;;;-148.52;71.00
3254;BME280;1639;42.804;23.342;2023-03-14T03:56:27;74600.28;;;-148.52;70.30
3254;BME280;1639;42.804;23.342;2023-03-14T03:58:52;74610.63;;;-148.52;70.69
3254;BME280;1639;42.804;23.342;2023-03-14T04:01:18;74614.78;;;-148.52;70.96
3254;BME280;1639;42.804;23.342;2023-03-14T04:03:43;74614.78;;;-148.52;70.63
3254;BME280;1639;42.804;23.342;2023-03-14T04:06:11;74623.06;;;-148.52;70.91
3254;BME280;1639;42.804;23.342;2023-03-14T04:08:38;74608.56;;;-148.52;70.42
3254;BME280;1639;42.804;23.342;2023-03-14T04:11:04;74610.63;;;-148.52;69.94
3254;BME280;1639;42.804;23.342;2023-03-14T04:13:29;74616.84;;;-148.52;70.21
3254;BME280;1639;42.804;23.342;2023-03-14T04:15:55;74612.69;;;-148.52;71.10
3254;BME280;1639;42.804;23.342;2023-03-14T04:18:22;74629.25;;;-148.52;71.10
3254;BME280;1639;42.804;23.342;2023-03-14T04:20:53;74625.13;;;-148.52;72.66
3254;BME280;1639;42.804;23.342;2023-03-14T04:23:19;74631.31;;;-148.52;72.97
3254;BME280;1639;42.804;23.342;2023-03-14T04:25:45;74625.13;;;-148.52;72.26
3254;BME280;1639;42.804;23.342;2023-03-14T04:28:10;74612.69;;;-148.52;71.47
3254;BME280;1639;42.804;23.342;2023-03-14T04:30:35;74618.91;;;-148.52;71.25
3254;BME280;1639;42.804;23.342;2023-03-14T04:33:01;74618.91;;;-148.52;71.91
3254;BME280;1639;42.804;23.342;2023-03-14T04:35:26;74596.16;;;-148.52;71.21
3254;BME280;1639;42.804;23.342;2023-03-14T04:37:51;74618.91;;;-148.52;70.85
3254;BME280;1639;42.804;23.342;2023-03-14T04:40:17;74608.56;;;-148.52;70.62
3254;BME280;1639;42.804;23.342;2023-03-14T04:42:43;74627.19;;;-148.52;71.25
3254;BME280;1639;42.804;23.342;2023-03-14T04:45:09;74618.91;;;-148.52;71.11
3254;BME280;1639;42.804;23.342;2023-03-14T04:47:34;74629.25;;;-148.52;72.58
3254;BME280;1639;42.804;23.342;2023-03-14T04:50:00;74618.91;;;-148.52;72.72
3254;BME280;1639;42.804;23.342;2023-03-14T04:52:26;74610.63;;;-148.52;71.76
3254;BME280;1639;42.804;23.342;2023-03-14T04:54:51;74614.78;;;-148.52;71.44
3254;BME280;1639;42.804;23.342;2023-03-14T04:57:17;74614.78;;;-148.52;71.96
3254;BME280;1639;42.804;23.342;2023-03-14T04:59:42;74618.91;;;-148.52;72.13
3254;BME280;1639;42.804;23.342;2023-03-14T05:02:08;74623.06;;;-148.52;72.36
3254;BME280;1639;42.804;23.342;2023-03-14T05:04:33;74610.63;;;-148.52;72.46
3254;BME280;1639;42.804;23.342;2023-03-14T05:06:59;74620.97;;;-148.52;72.85
3254;BME280;1639;42.804;23.342;2023-03-14T05:09:25;74612.69;;;-148.52;74.86
3254;BME280;1639;42.804;23.342;2023-03-14T05:11:51;74602.34;;;-148.52;74.56
3254;BME280;1639;42.804;23.342;2023-03-14T05:14:16;74577.53;;;-148.52;73.74
3254;BME280;1639;42.804;23.342;2023-03-14T05:16:42;74589.94;;;-148.52;73.74
3254;BME280;1639;42.804;23.342;2023-03-14T05:19:07;74571.31;;;-148.52;73.82
3254;BME280;1639;42.804;23.342;2023-03-14T05:21:33;74550.63;;;-148.52;73.17
3254;BME280;1639;42.804;23.342;2023-03-14T05:23:58;74536.16;;;-148.52;73.88
3254;BME280;1639;42.804;23.342;2023-03-14T05:26:24;74517.53;;;-148.52;74.11
3254;BME280;1639;42.804;23.342;2023-03-14T05:28:49;74498.91;;;-148.52;73.78
3254;BME280;1639;42.804;23.342;2023-03-14T05:31:14;74467.88;;;-148.52;72.52
3254;BME280;1639;42.804;23.342;2023-03-14T05:33:40;74457.53;;;-148.52;72.12
3254;BME280;1639;42.804;23.342;2023-03-14T05:36:06;74438.91;;;-148.52;71.25
3254;BME280;1639;42.804;23.342;2023-03-14T05:38:31;74416.16;;;-148.52;70.66
3254;BME280;1639;42.804;23.342;2023-03-14T05:40:57;74393.38;;;-148.52;71.06
3254;BME280;1639;42.804;23.342;2023-03-14T05:43:22;74372.69;;;-148.52;70.20
3254;BME280;1639;42.804;23.342;2023-03-14T05:45:47;74337.53;;;-148.52;69.60
3254;BME280;1639;42.804;23.342;2023-03-14T05:48:13;74300.28;;;-148.52;69.24
3254;BME280;1639;42.804;23.342;2023-03-14T05:50:38;74287.88;;;-148.52;66.88
3254;BME280;1639;42.804;23.342;2023-03-14T05:53:05;74258.91;;;-148.52;65.41
3254;BME280;1639;42.804;23.342;2023-03-14T05:55:30;74244.44;;;-148.52;64.95
3254;BME280;1639;42.804;23.342;2023-03-14T05:57:56;74225.81;;;-148.52;64.48
3254;BME280;1639;42.804;23.342;2023-03-14T06:00:21;74217.53;;;-148.52;63.70
3254;BME280;1639;42.804;23.342;2023-03-14T06:02:47;74192.72;;;-148.52;63.77
3254;BME280;1639;42.804;23.342;2023-03-14T06:05:12;74161.69;;;-148.52;62.96
3254;BME280;1639;42.804;23.342;2023-03-14T06:07:38;74153.41;;;-148.52;61.77
3254;BME280;1639;42.804;23.342;2023-03-14T06:10:04;74147.19;;;-148.52;60.14
3254;BME280;1639;42.804;23.342;2023-03-14T06:12:30;74130.66;;;-148.52;60.42
3254;BME280;1639;42.804;23.342;2023-03-14T06:14:55;74101.69;;;-148.52;59.08
3254;BME280;1639;42.804;23.342;2023-03-14T06:17:21;74093.41;;;-148.52;59.49
3254;BME280;1639;42.804;23.342;2023-03-14T06:19:46;74105.81;;;-148.52;60.80
3254;BME280;1639;42.804;23.342;2023-03-14T06:22:11;74109.94;;;-148.52;61.84
3254;BME280;1639;42.804;23.342;2023-03-14T06:24:37;74072.72;;;-148.52;60.40
3254;BME280;1639;42.804;23.342;2023-03-14T06:27:02;74060.31;;;-148.52;58.84
3254;BME280;1639;42.804;23.342;2023-03-14T06:29:29;74045.81;;;-148.52;54.36
3254;BME280;1639;42.804;23.342;2023-03-14T06:31:55;74008.59;;;-148.52;54.05
3254;BME280;1639;42.804;23.342;2023-03-14T06:34:20;74016.88;;;-148.52;52.53
3254;BME280;1639;42.804;23.342;2023-03-14T06:36:45;74000.31;;;-148.52;52.76
3254;BME280;1639;42.804;23.342;2023-03-14T06:39:11;73996.16;;;-148.52;54.09
3254;BME280;1639;42.804;23.342;2023-03-14T06:41:36;73977.56;;;-148.52;54.59
3254;BME280;1639;42.804;23.342;2023-03-14T06:44:02;73952.72;;;-148.52;54.55
3254;BME280;1639;42.804;23.342;2023-03-14T06:46:27;73938.25;;;-148.52;53.21
3254;BME280;1639;42.804;23.342;2023-03-14T06:48:53;73936.19;;;-148.52;52.12
3254;BME280;1639;42.804;23.342;2023-03-14T06:51:18;73929.97;;;-148.52;52.16
3254;BME280;1639;42.804;23.342;2023-03-14T06:53:44;73919.63;;;-148.52;53.67
3254;BME280;1639;42.804;23.342;2023-03-14T06:56:10;73888.59;;;-148.52;53.69
3254;BME280;1639;42.804;23.342;2023-03-14T06:58:36;73884.47;;;-148.52;53.15
3254;BME280;1639;42.804;23.342;2023-03-14T07:01:01;73865.84;;;-148.52;52.87
3254;BME280;1639;42.804;23.342;2023-03-14T07:03:27;73845.16;;;-148.52;52.33
3254;BME280;1639;42.804;23.342;2023-03-14T07:05:53;73830.69;;;-148.52;54.13
3254;BME280;1639;42.804;23.342;2023-03-14T07:08:18;73812.06;;;-148.52;51.85
3254;BME280;1639;42.804;23.342;2023-03-14T07:10:43;73795.50;;;-148.52;52.01
3254;BME280;1639;42.804;23.342;2023-03-14T07:13:09;73803.78;;;-148.52;50.85
3254;BME280;1639;42.804;23.342;2023-03-14T07:15:34;73832.75;;;-148.52;50.67
3254;BME280;1639;42.804;23.342;2023-03-14T07:18:00;73828.59;;;-148.52;52.53
3254;BME280;1639;42.804;23.342;2023-03-14T07:20:26;73810.00;;;-148.52;51.96
3254;BME280;1639;42.804;23.342;2023-03-14T07:22:51;73745.88;;;-148.52;51.08
3254;BME280;1639;42.804;23.342;2023-03-14T07:25:17;73708.63;;;-148.52;50.62
3254;BME280;1639;42.804;23.342;2023-03-14T07:27:44;73677.59;;;-148.52;51.60
3254;BME280;1639;42.804;23.342;2023-03-14T07:30:10;73648.63;;;-148.52;50.00
3254;BME280;1639;42.804;23.342;2023-03-14T07:32:36;73605.19;;;-148.52;49.65
3254;BME280;1639;42.804;23.342;2023-03-14T07:35:02;73580.38;;;-148.52;49.78
3254;BME280;1639;42.804;23.342;2023-03-14T07:37:27;73551.41;;;-148.52;48.54
3254;BME280;1639;42.804;23.342;2023-03-14T07:39:53;73530.75;;;-148.52;47.27
3254;BME280;1639;42.804;23.342;2023-03-14T07:42:18;73522.47;;;-148.52;46.43
3254;BME280;1639;42.804;23.342;2023-03-14T07:44:43;73522.47;;;-148.52;45.66
3254;BME280;1639;42.804;23.342;2023-03-14T07:47:09;73543.16;;;-148.52;47.19
3254;BME280;1639;42.804;23.342;2023-03-14T07:49:34;73530.75;;;-148.52;46.34
3254;BME280;1639;42.804;23.342;2023-03-14T07:52:00;73555.56;;;-148.52;47.10
3254;BME280;1639;42.804;23.342;2023-03-14T07:54:25;73557.63;;;-148.52;46.55
3254;BME280;1639;42.804;23.342;2023-03-14T07:56:51;73534.88;;;-148.52;47.66
3254;BME280;1639;42.804;23.342;2023-03-14T07:59:19;73512.13;;;-148.52;45.76
3254;BME280;1639;42.804;23.342;2023-03-14T08:01:45;73510.06;;;-148.52;45.30
3254;BME280;1639;42.804;23.342;2023-03-14T08:04:11;73534.88;;;-148.52;45.44
3254;BME280;1639;42.804;23.342;2023-03-14T08:06:36;73518.31;;;-148.52;44.70
3254;BME280;1639;42.804;23.342;2023-03-14T08:09:03;73474.88;;;-148.52;45.00
3254;BME280;1639;42.804;23.342;2023-03-14T08:11:28;73481.09;;;-148.52;45.11
3254;BME280;1639;42.804;23.342;2023-03-14T08:13:54;73441.78;;;-148.52;45.10
3254;BME280;1639;42.804;23.342;2023-03-14T08:16:19;73394.22;;;-148.52;43.88
3254;BME280;1639;42.804;23.342;2023-03-14T08:18:45;73357.00;;;-148.52;43.47
3254;BME280;1639;42.804;23.342;2023-03-14T08:21:11;73365.25;;;-148.52;43.84
3254;BME280;1639;42.804;23.342;2023-03-14T08:23:37;73311.47;;;-148.52;43.10
3254;BME280;1639;42.804;23.342;2023-03-14T08:26:02;73299.06;;;-148.52;43.28
3254;BME280;1639;42.804;23.342;2023-03-14T08:28:27;73261.84;;;-148.52;44.50
3254;BME280;1639;42.804;23.342;2023-03-14T08:30:58;73257.72;;;-148.52;43.63
3254;BME280;1639;42.804;23.342;2023-03-14T08:33:24;73251.50;;;-148.52;44.08
3254;BME280;1639;42.804;23.342;2023-03-14T08:35:58;73249.44;;;-148.52;42.06
3254;BME280;1639;42.804;23.342;2023-03-14T08:38:24;73228.75;;;-148.52;42.97
3254;BME280;1639;42.804;23.342;2023-03-14T08:40:55;73201.84;;;-148.52;42.55
3254;BME280;1639;42.804;23.342;2023-03-14T08:43:21;73201.84;;;-148.52;40.88
3254;BME280;1639;42.804;23.342;2023-03-14T08:45:47;73160.50;;;-148.52;42.11
3254;BME280;1639;42.804;23.342;2023-03-14T08:48:12;73166.69;;;-148.52;42.65
3254;BME280;1639;42.804;23.342;2023-03-14T08:50:37;73133.59;;;-148.52;40.71
3254;BME280;1639;42.804;23.342;2023-03-14T08:53:03;73100.50;;;-148.52;40.20
3254;BME280;1639;42.804;23.342;2023-03-14T08:55:29;73146.00;;;-148.52;40.79
3254;BME280;1639;42.804;23.342;2023-03-14T08:57:54;73143.94;;;-148.52;40.50
3254;BME280;1639;42.804;23.342;2023-03-14T09:00:20;73148.09;;;-148.52;39.98
3254;BME280;1639;42.804;23.342;2023-03-14T09:02:45;73156.34;;;-148.52;40.68
3254;BME280;1639;42.804;23.342;2023-03-14T09:05:11;73110.84;;;-148.52;40.71
3254;BME280;1639;42.804;23.342;2023-03-14T09:07:38;73112.91;;;-148.52;38.65
3254;BME280;1639;42.804;23.342;2023-03-14T09:10:04;73110.84;;;-148.52;39.38
3254;BME280;1639;42.804;23.342;2023-03-14T09:12:29;73092.25;;;-148.52;39.91
3254;BME280;1639;42.804;23.342;2023-03-14T09:14:55;73065.34;;;-148.52;40.03
3254;BME280;1639;42.804;23.342;2023-03-14T09:17:21;73034.34;;;-148.52;41.09
3254;BME280;1639;42.804;23.342;2023-03-14T09:19:47;72997.09;;;-148.52;38.50
3254;BME280;1639;42.804;23.342;2023-03-14T09:22:12;72984.69;;;-148.52;37.63
3254;BME280;1639;42.804;23.342;2023-03-14T09:24:37;72992.97;;;-148.52;37.61
3254;BME280;1639;42.804;23.342;2023-03-14T09:27:03;72992.97;;;-148.52;37.66
3254;BME280;1639;42.804;23.342;2023-03-14T09:29:28;73013.66;;;-148.52;38.29
3254;BME280;1639;42.804;23.342;2023-03-14T09:31:53;72959.88;;;-148.52;38.06
3254;BME280;1639;42.804;23.342;2023-03-14T09:34:19;72951.59;;;-148.52;37.16
3254;BME280;1639;42.804;23.342;2023-03-14T09:36:45;72949.53;;;-148.52;38.44
3254;BME280;1639;42.804;23.342;2023-03-14T09:39:11;72957.81;;;-148.52;39.58
3254;BME280;1639;42.804;23.342;2023-03-14T09:41:41;72895.75;;;-148.52;37.30
3254;BME280;1639;42.804;23.342;2023-03-14T09:44:29;72864.75;;;-148.52;38.18
3254;BME280;1639;42.804;23.342;2023-03-14T09:46:58;72873.00;;;-148.52;36.96
3254;BME280;1639;42.804;23.342;2023-03-14T09:49:34;72856.47;;;-148.52;36.57
3254;BME280;1639;42.804;23.342;2023-03-14T09:52:02;72856.47;;;-148.52;36.73
3254;BME280;1639;42.804;23.342;2023-03-14T09:56:56;72860.59;;;-148.52;36.88
3254;BME280;1639;42.804;23.342;2023-03-14T09:59:22;72810.97;;;-148.52;36.57
3254;BME280;1639;42.804;23.342;2023-03-14T10:01:47;72819.25;;;-148.52;36.00
3254;BME280;1639;42.804;23.342;2023-03-14T10:04:16;72813.03;;;-148.52;36.17
3254;BME280;1639;42.804;23.342;2023-03-14T10:06:42;72769.59;;;-148.52;36.30
3254;BME280;1639;42.804;23.342;2023-03-14T10:09:22;72744.78;;;-148.52;35.89
3254;BME280;1639;42.804;23.342;2023-03-14T10:11:59;72748.91;;;-148.52;35.47
3254;BME280;1639;42.804;23.342;2023-03-14T10:14:34;72767.53;;;-148.52;35.17
3254;BME280;1639;42.804;23.342;2023-03-14T10:17:09;72802.69;;;-148.52;35.58
3254;BME280;1639;42.804;23.342;2023-03-14T10:19:36;72779.94;;;-148.52;36.11
3254;BME280;1639;42.804;23.342;2023-03-14T10:22:04;72738.59;;;-148.52;34.99
3254;BME280;1639;42.804;23.342;2023-03-14T10:24:34;72736.50;;;-148.52;35.07
3254;BME280;1639;42.804;23.342;2023-03-14T10:27:19;72724.09;;;-148.52;34.71
3254;BME280;1639;42.804;23.342;2023-03-14T10:29:57;72732.38;;;-148.52;33.98
3254;BME280;1639;42.804;23.342;2023-03-14T10:32:35;72691.00;;;-148.52;33.98
3254;BME280;1639;42.804;23.342;2023-03-14T10:37:32;72655.84;;;-148.52;34.60
3254;BME280;1639;42.804;23.342;2023-03-14T10:40:02;72618.63;;;-148.52;36.49
3254;BME280;1639;42.804;23.342;2023-03-14T10:42:39;72602.09;;;-148.52;34.79
3254;BME280;1639;42.804;23.342;2023-03-14T10:48:22;72583.47;;;-148.52;34.78
3254;BME280;1639;42.804;23.342;2023-03-14T10:53:49;72566.94;;;-148.52;35.69
3254;BME280;1639;42.804;23.342;2023-03-14T10:56:23;72525.56;;;-148.52;35.39
3254;BME280;1639;42.804;23.342;2023-03-14T10:58:50;72517.31;;;-148.52;35.42
3254;BME280;1639;42.804;23.342;2023-03-14T11:03:49;72529.72;;;-148.52;34.89
3254;BME280;1639;42.804;23.342;2023-03-14T11:06:52;72583.47;;;-148.52;35.68
3254;BME280;1639;42.804;23.342;2023-03-14T11:09:29;72562.81;;;-148.52;35.27
3254;BME280;1639;42.804;23.342;2023-03-14T11:12:08;72546.25;;;-148.52;35.18
3254;BME280;1639;42.804;23.342;2023-03-14T11:14:47;72492.50;;;-148.52;34.92
3254;BME280;1639;42.804;23.342;2023-03-14T11:22:47;72484.22;;;-148.52;34.92
3254;BME280;1639;42.804;23.342;2023-03-14T11:28:14;72471.81;;;-148.52;34.82
3254;BME280;1639;42.804;23.342;2023-03-14T11:30:52;72461.47;;;-148.52;36.90
3254;BME280;1639;42.804;23.342;2023-03-14T11:33:23;72418.03;;;-148.52;34.25
3254;BME280;1639;42.804;23.342;2023-03-14T11:38:58;72397.38;;;-148.52;34.11
3254;BME280;1639;42.804;23.342;2023-03-14T11:41:36;72374.63;;;-148.52;33.85
3254;BME280;1639;42.804;23.342;2023-03-14T11:44:10;72360.13;;;-148.52;34.60
3254;BME280;1639;42.804;23.342;2023-03-14T11:46:44;72368.41;;;-148.52;34.89
3254;BME280;1639;42.804;23.342;2023-03-14T11:49:32;72347.72;;;-148.52;34.08
3254;BME280;1639;42.804;23.342;2023-03-14T11:52:09;72302.25;;;-148.52;33.46
3254;BME280;1639;42.804;23.342;2023-03-14T11:57:22;72279.50;;;-148.52;33.54
3254;BME280;1639;42.804;23.342;2023-03-14T12:10:44;72256.75;;;-148.52;33.63
3254;BME280;1639;42.804;23.342;2023-03-14T12:13:11;72252.63;;;-148.52;32.69
3254;BME280;1639;42.804;23.342;2023-03-14T12:15:40;72213.31;;;-148.52;32.80
3254;BME280;1639;42.804;23.342;2023-03-14T12:18:20;72215.38;;;-148.52;32.62
3254;BME280;1639;42.804;23.342;2023-03-14T12:21:12;72182.31;;;-148.52;31.85
3254;BME280;1639;42.804;23.342;2023-03-14T12:23:44;72169.91;;;-148.52;31.65
3254;BME280;1639;42.804;23.342;2023-03-14T12:28:36;72136.81;;;-148.52;31.75
3254;BME280;1639;42.804;23.342;2023-03-14T12:34:04;72118.22;;;-148.52;32.10
3254;BME280;1639;42.804;23.342;2023-03-14T12:37:16;72132.69;;;-148.52;31.65
3254;BME280;1639;42.804;23.342;2023-03-14T12:40:10;72116.13;;;-148.52;30.64
3254;BME280;1639;42.804;23.342;2023-03-14T12:45:29;72078.91;;;-148.52;32.19
3254;BME280;1639;42.804;23.342;2023-03-14T12:48:13;72085.13;;;-148.52;30.51
3254;BME280;1639;42.804;23.342;2023-03-14T12:50:44;72058.25;;;-148.52;30.84
3254;BME280;1639;42.804;23.342;2023-03-14T12:59:03;72070.66;;;-148.52;30.52
3254;BME280;1639;42.804;23.342;2023-03-14T13:01:33;72045.84;;;-148.52;30.76
3254;BME280;1639;42.804;23.342;2023-03-14T13:04:04;72064.44;;;-148.52;30.17
3254;BME280;1639;42.804;23.342;2023-03-14T13:06:57;72070.66;;;-148.52;30.67
3254;BME280;1639;42.804;23.342;2023-03-14T13:12:11;72043.78;;;-148.52;30.79
3254;BME280;1639;42.804;23.342;2023-03-14T13:14:45;72010.69;;;-148.52;30.65
3254;BME280;1639;42.804;23.342;2023-03-14T13:17:15;72012.75;;;-148.52;30.01
3254;BME280;1639;42.804;23.342;2023-03-14T13:19:50;72025.16;;;-148.52;29.79
3254;BME280;1639;42.804;23.342;2023-03-14T13:22:21;72012.75;;;-148.52;29.69
3254;BME280;1639;42.804;23.342;2023-03-14T13:24:47;72025.16;;;-148.52;28.68
3254;BME280;1639;42.804;23.342;2023-03-14T13:27:19;72010.69;;;-148.52;29.24
3254;BME280;1639;42.804;23.342;2023-03-14T13:29:48;71990.00;;;-148.52;29.30
3254;BME280;1639;42.804;23.342;2023-03-14T13:32:19;72002.41;;;-148.52;29.25
3254;BME280;1639;42.804;23.342;2023-03-14T13:34:45;71979.66;;;-148.52;29.57
3254;BME280;1639;42.804;23.342;2023-03-14T13:37:20;71965.19;;;-148.52;29.47
3254;BME280;1639;42.804;23.342;2023-03-14T13:39:50;71973.47;;;-148.52;29.14
3254;BME280;1639;42.804;23.342;2023-03-14T13:42:17;71959.00;;;-148.52;28.97
3254;BME280;1639;42.804;23.342;2023-03-14T13:44:43;71959.00;;;-148.52;28.71
3254;BME280;1639;42.804;23.342;2023-03-14T13:47:16;71956.94;;;-148.52;29.02
3254;BME280;1639;42.804;23.342;2023-03-14T13:49:43;71954.84;;;-148.52;29.11
3254;BME280;1639;42.804;23.342;2023-03-14T13:52:36;71946.59;;;-148.52;29.08
3254;BME280;1639;42.804;23.342;2023-03-14T13:55:03;71940.38;;;-148.52;28.93